Time;durP1;ratioP1;P1;durP2;ratioP2;P2;SDS_P1;SDS_P2;PMS_P1;PMS_P2;Temp;Humidity;BMP_temperature;BMP_pressure;BME280_temperature;BME280_humidity;BME280_pressure;Samples;Min_cycle;Max_cycle;Signal;HPM_P1;HPM_P2
2020/12/09 00:01:19;;;;;;;27.47;17.50;;;3.30;59.30;;;;;;5005400;28;40054;-89
2020/12/09 00:04:13;;;;;;;29.67;17.90;;;3.20;59.60;;;;;;4980822;28;38233;-90
2020/12/09 00:14:19;;;;;;;28.30;17.30;;;3.20;60.00;;;;;;5025277;28;40426;-91
2020/12/09 00:17:13;;;;;;;26.17;16.20;;;3.20;60.30;;;;;;5007347;28;39664;-89
2020/12/09 00:20:15;;;;;;;33.00;17.60;;;3.20;60.70;;;;;;5026509;28;37099;-90
2020/12/09 00:23:37;;;;;;;29.67;17.97;;;3.20;60.60;;;;;;5028048;28;36593;-90
2020/12/09 00:26:31;;;;;;;33.03;18.50;;;3.20;60.70;;;;;;4963316;28;38455;-89
2020/12/09 00:32:54;;;;;;;30.63;18.63;;;3.20;60.30;;;;;;5025678;28;37290;-87
2020/12/09 00:35:24;;;;;;;29.60;19.30;;;3.20;60.60;;;;;;5010406;28;38844;-89
2020/12/09 00:37:54;;;;;;;32.77;19.97;;;3.20;60.60;;;;;;5016645;28;38735;-88
2020/12/09 00:40:37;;;;;;;33.37;20.60;;;3.20;60.80;;;;;;5027066;28;37887;-88
2020/12/09 00:43:26;;;;;;;31.50;19.27;;;3.20;60.70;;;;;;5023983;28;38563;-88
2020/12/09 00:46:06;;;;;;;33.90;19.50;;;3.20;60.80;;;;;;5023076;28;36938;-88
2020/12/09 00:49:26;;;;;;;29.30;17.80;;;3.20;61.00;;;;;;5030674;28;38935;-89
2020/12/09 00:52:46;;;;;;;28.80;17.93;;;3.20;60.90;;;;;;4940136;28;40294;-89
2020/12/09 00:55:31;;;;;;;35.50;18.50;;;3.20;61.00;;;;;;4937026;28;38397;-88
2020/12/09 00:58:05;;;;;;;29.07;18.20;;;3.20;61.20;;;;;;4972260;28;36968;-90
2020/12/09 01:00:35;;;;;;;29.33;17.73;;;3.20;61.20;;;;;;5012799;28;38787;-89
2020/12/09 01:03:14;;;;;;;35.73;19.13;;;3.20;61.30;;;;;;5028651;28;38427;-89
2020/12/09 01:05:41;;;;;;;31.10;18.87;;;3.20;61.30;;;;;;5014140;28;39471;-88
2020/12/09 01:08:08;;;;;;;27.93;17.67;;;3.20;61.30;;;;;;5020015;28;35997;-90
2020/12/09 01:10:35;;;;;;;32.80;17.90;;;3.30;61.30;;;;;;5009267;28;38913;-87
2020/12/09 01:13:03;;;;;;;31.73;19.53;;;3.30;61.30;;;;;;5026044;28;37645;-87
2020/12/09 01:15:29;;;;;;;32.20;18.20;;;3.30;61.40;;;;;;5016862;28;38381;-88
2020/12/09 01:17:57;;;;;;;33.20;18.80;;;3.30;61.30;;;;;;5020001;28;38387;-89
2020/12/09 01:20:24;;;;;;;33.90;19.47;;;3.30;61.30;;;;;;5027489;28;39022;-88
2020/12/09 01:22:52;;;;;;;34.27;19.27;;;3.30;61.30;;;;;;5029130;28;40180;-89
2020/12/09 01:25:19;;;;;;;29.37;18.73;;;3.30;61.30;;;;;;5023377;28;37494;-90
2020/12/09 01:27:46;;;;;;;33.80;20.27;;;3.30;61.30;;;;;;5038838;28;36650;-89
2020/12/09 01:30:14;;;;;;;29.63;18.40;;;3.40;61.30;;;;;;5023459;28;39674;-89
2020/12/09 01:32:43;;;;;;;31.53;19.00;;;3.40;61.30;;;;;;5022508;28;39001;-89
2020/12/09 01:39:01;;;;;;;34.13;20.10;;;3.40;60.80;;;;;;5032748;28;35903;-90
2020/12/09 01:41:36;;;;;;;28.07;18.50;;;3.40;60.70;;;;;;5019644;28;40192;-90
2020/12/09 01:44:26;;;;;;;31.80;20.67;;;3.40;60.70;;;;;;5011393;28;38750;-89
2020/12/09 01:47:01;;;;;;;31.60;19.20;;;3.40;60.60;;;;;;5016169;28;37042;-89
2020/12/09 01:49:34;;;;;;;37.43;20.00;;;3.40;60.40;;;;;;5017465;28;36546;-88
2020/12/09 01:52:12;;;;;;;35.70;18.47;;;3.40;60.50;;;;;;5023792;28;40997;-89
2020/12/09 01:54:50;;;;;;;34.63;19.20;;;3.40;60.40;;;;;;5032084;28;38019;-89
2020/12/09 02:00:35;;;;;;;33.23;20.30;;;3.40;60.70;;;;;;5000605;28;38602;-89
2020/12/09 02:03:06;;;;;;;30.87;19.40;;;3.40;60.40;;;;;;5033649;28;40701;-89
2020/12/09 02:05:37;;;;;;;29.67;18.27;;;3.40;60.10;;;;;;5040633;28;38250;-89
2020/12/09 02:08:09;;;;;;;30.50;19.03;;;3.30;60.30;;;;;;5029553;28;39342;-88
2020/12/09 02:10:40;;;;;;;31.10;18.40;;;3.20;60.50;;;;;;5026589;28;36709;-89
2020/12/09 02:13:18;;;;;;;31.13;19.17;;;3.10;60.60;;;;;;5039650;28;39498;-89
2020/12/09 02:15:50;;;;;;;30.00;19.23;;;3.20;60.80;;;;;;5020549;28;38707;-88
2020/12/09 02:18:20;;;;;;;29.33;19.00;;;3.20;60.90;;;;;;5019001;28;36781;-89
2020/12/09 02:21:06;;;;;;;28.90;18.00;;;3.20;60.90;;;;;;5015674;28;37696;-89
2020/12/09 02:23:56;;;;;;;30.53;19.03;;;3.30;61.10;;;;;;5009823;28;39044;-88
2020/12/09 02:26:42;;;;;;;29.37;17.50;;;3.30;61.00;;;;;;5017404;28;38636;-87
2020/12/09 02:29:15;;;;;;;28.70;16.87;;;3.30;60.90;;;;;;5020728;28;37927;-89
2020/12/09 02:31:48;;;;;;;31.67;19.20;;;3.30;60.70;;;;;;5024656;28;21203;-89
2020/12/09 02:34:27;;;;;;;31.00;18.17;;;3.30;60.60;;;;;;5018011;28;40718;-90
2020/12/09 02:37:07;;;;;;;33.60;19.53;;;3.20;60.70;;;;;;5017100;28;38365;-89
2020/12/09 02:39:43;;;;;;;32.57;19.07;;;3.20;60.40;;;;;;5016114;28;38038;-88
2020/12/09 02:42:15;;;;;;;31.13;16.90;;;3.30;60.70;;;;;;5016424;28;37948;-88
2020/12/09 02:44:43;;;;;;;32.10;19.13;;;3.30;60.60;;;;;;5023735;28;38196;-88
2020/12/09 02:47:16;;;;;;;30.90;19.33;;;3.30;60.30;;;;;;5019326;28;38567;-88
2020/12/09 02:49:47;;;;;;;29.00;18.90;;;3.30;60.50;;;;;;5026648;28;36895;-88
2020/12/09 02:52:21;;;;;;;31.43;18.97;;;3.30;60.90;;;;;;5018208;28;36728;-89
2020/12/09 02:54:55;;;;;;;33.70;18.80;;;3.30;61.00;;;;;;5020532;28;38479;-88
2020/12/09 02:57:29;;;;;;;36.50;19.27;;;3.30;61.00;;;;;;5021624;28;39109;-88
2020/12/09 03:00:01;;;;;;;32.40;18.50;;;3.30;61.30;;;;;;5018185;28;37845;-88
2020/12/09 03:02:44;;;;;;;30.33;18.23;;;3.30;61.20;;;;;;5022537;28;38108;-88
2020/12/09 03:05:14;;;;;;;33.70;19.73;;;3.40;61.30;;;;;;5022711;28;40127;-87
2020/12/09 03:07:52;;;;;;;31.27;18.47;;;3.40;61.10;;;;;;5027643;28;38541;-89
2020/12/09 03:10:22;;;;;;;33.27;17.90;;;3.40;60.90;;;;;;5041883;28;36942;-89
2020/12/09 03:12:49;;;;;;;32.93;19.50;;;3.40;60.60;;;;;;5017900;28;37227;-89
2020/12/09 03:15:16;;;;;;;32.07;18.57;;;3.30;60.70;;;;;;5022877;28;39777;-89
2020/12/09 03:17:44;;;;;;;32.47;17.73;;;3.40;60.90;;;;;;5018660;28;39019;-90
2020/12/09 03:20:11;;;;;;;37.37;18.10;;;3.40;60.80;;;;;;5020552;28;36754;-89
2020/12/09 03:22:38;;;;;;;31.20;17.90;;;3.30;60.80;;;;;;5014792;28;37516;-88
2020/12/09 03:25:05;;;;;;;35.27;19.03;;;3.20;61.10;;;;;;5010911;28;38771;-88
2020/12/09 03:27:34;;;;;;;30.57;17.83;;;3.20;61.10;;;;;;5021072;28;39424;-88
2020/12/09 03:30:02;;;;;;;40.63;20.23;;;3.30;61.30;;;;;;5017353;28;38424;-89
2020/12/09 03:32:29;;;;;;;38.73;18.50;;;3.40;61.10;;;;;;5018212;28;36625;-88
2020/12/09 03:34:56;;;;;;;31.57;19.20;;;3.40;61.20;;;;;;5023171;28;40229;-89
2020/12/09 03:37:23;;;;;;;33.67;19.03;;;3.40;61.40;;;;;;5049813;28;37910;-88
2020/12/09 03:39:50;;;;;;;32.07;19.10;;;3.40;61.40;;;;;;5016434;28;37927;-89
2020/12/09 03:42:18;;;;;;;32.77;18.27;;;3.50;61.30;;;;;;5021301;28;37945;-89
2020/12/09 03:44:46;;;;;;;38.23;19.53;;;3.50;61.20;;;;;;5023777;28;39960;-88
2020/12/09 03:47:13;;;;;;;31.97;17.77;;;3.50;61.30;;;;;;5021568;28;39648;-89
2020/12/09 03:49:40;;;;;;;35.27;19.53;;;3.50;61.30;;;;;;5011438;28;38313;-89
2020/12/09 03:52:09;;;;;;;42.83;20.00;;;3.50;61.40;;;;;;5010658;28;36794;-88
2020/12/09 03:54:36;;;;;;;35.93;19.93;;;3.50;61.20;;;;;;5018901;28;40600;-88
2020/12/09 03:57:03;;;;;;;36.00;19.73;;;3.50;61.20;;;;;;5026025;28;39307;-89
2020/12/09 03:59:30;;;;;;;38.73;19.17;;;3.50;61.40;;;;;;5043887;28;38400;-89
2020/12/09 04:01:59;;;;;;;38.20;20.33;;;3.50;61.50;;;;;;5028702;28;37419;-89
2020/12/09 04:04:26;;;;;;;37.27;19.50;;;3.50;61.50;;;;;;5036558;28;38751;-89
2020/12/09 04:06:56;;;;;;;35.57;19.07;;;3.50;61.50;;;;;;5045062;28;38969;-88
2020/12/09 04:09:23;;;;;;;33.87;19.47;;;3.50;61.50;;;;;;5047394;28;36985;-89
2020/12/09 04:11:50;;;;;;;35.60;19.73;;;3.50;61.50;;;;;;5032075;28;38801;-89
2020/12/09 04:14:19;;;;;;;42.93;23.27;;;3.50;62.20;;;;;;5031840;28;39635;-87
2020/12/09 04:16:46;;;;;;;38.00;20.77;;;3.50;61.50;;;;;;5028893;28;38353;-89
2020/12/09 04:19:14;;;;;;;36.00;20.13;;;3.40;61.50;;;;;;5028683;28;38505;-88
2020/12/09 04:21:44;;;;;;;43.37;22.17;;;3.50;61.50;;;;;;5007033;28;36320;-88
2020/12/09 04:24:19;;;;;;;41.23;21.30;;;3.40;61.60;;;;;;5032529;28;38682;-89
2020/12/09 04:26:47;;;;;;;34.63;20.43;;;3.40;61.40;;;;;;5019613;28;39066;-89
2020/12/09 04:29:14;;;;;;;39.30;20.70;;;3.40;61.50;;;;;;5023432;28;38726;-89
2020/12/09 04:31:41;;;;;;;42.33;21.37;;;3.30;62.00;;;;;;5038335;28;36083;-89
2020/12/09 04:34:09;;;;;;;38.27;21.10;;;3.30;62.30;;;;;;5024351;28;39903;-89
2020/12/09 04:36:38;;;;;;;40.13;20.77;;;3.30;62.40;;;;;;5029691;28;39495;-89
2020/12/09 04:39:06;;;;;;;44.20;20.80;;;3.40;62.50;;;;;;5030836;28;38567;-89
2020/12/09 04:41:34;;;;;;;43.63;19.97;;;3.30;62.40;;;;;;5025523;28;38429;-90
2020/12/09 04:44:03;;;;;;;35.73;19.50;;;3.30;62.40;;;;;;5028024;28;39039;-89
2020/12/09 04:46:31;;;;;;;37.93;19.83;;;3.30;62.20;;;;;;5022899;28;38890;-89
2020/12/09 04:49:03;;;;;;;36.37;20.47;;;3.30;62.30;;;;;;5014158;28;37306;-88
2020/12/09 04:51:58;;;;;;;37.27;19.90;;;3.40;62.20;;;;;;5015776;28;36339;-88
2020/12/09 04:54:37;;;;;;;37.73;19.90;;;3.40;62.20;;;;;;5011816;28;39543;-89
2020/12/09 04:57:11;;;;;;;34.83;20.10;;;3.30;62.20;;;;;;5038901;28;37561;-89
2020/12/09 04:59:40;;;;;;;39.07;19.70;;;3.30;62.40;;;;;;5022569;28;38728;-90
2020/12/09 05:02:09;;;;;;;37.97;19.07;;;3.40;62.20;;;;;;5035655;28;37991;-89
2020/12/09 05:04:38;;;;;;;37.87;18.57;;;3.30;62.10;;;;;;5014367;28;39278;-89
2020/12/09 05:07:08;;;;;;;38.47;19.67;;;3.30;62.00;;;;;;5006513;28;40495;-90
2020/12/09 05:09:43;;;;;;;34.33;18.30;;;3.30;62.10;;;;;;5007157;28;38671;-89
2020/12/09 05:12:13;;;;;;;36.03;19.50;;;3.30;62.20;;;;;;5026638;28;37393;-89
2020/12/09 05:14:47;;;;;;;34.07;18.50;;;3.30;62.30;;;;;;5025264;28;41102;-88
2020/12/09 05:17:18;;;;;;;39.23;18.40;;;3.30;62.20;;;;;;5005347;28;37604;-89
2020/12/09 05:19:47;;;;;;;37.57;18.80;;;3.30;62.10;;;;;;5041524;28;37449;-89
2020/12/09 05:22:21;;;;;;;33.70;17.20;;;3.30;62.00;;;;;;5043074;28;37616;-89
2020/12/09 05:24:50;;;;;;;36.33;19.40;;;3.30;62.10;;;;;;5037496;28;38823;-88
2020/12/09 05:27:17;;;;;;;39.60;18.57;;;3.30;62.10;;;;;;5050852;28;39321;-89
2020/12/09 05:29:45;;;;;;;35.13;17.67;;;3.30;62.20;;;;;;5029631;28;38441;-89
2020/12/09 05:32:13;;;;;;;31.03;17.17;;;3.40;62.20;;;;;;5034902;28;37670;-89
2020/12/09 05:34:42;;;;;;;34.87;18.27;;;3.40;62.20;;;;;;5030159;28;39649;-89
2020/12/09 05:37:13;;;;;;;30.20;16.63;;;3.40;61.80;;;;;;5024079;28;39133;-89
2020/12/09 05:39:52;;;;;;;33.90;18.40;;;3.40;61.90;;;;;;5023258;28;37201;-89
2020/12/09 05:42:21;;;;;;;36.10;17.17;;;3.40;62.00;;;;;;5032147;28;37479;-90
2020/12/09 05:44:49;;;;;;;31.73;18.23;;;3.40;61.80;;;;;;5028269;28;40352;-89
2020/12/09 05:47:18;;;;;;;33.93;18.93;;;3.40;61.70;;;;;;5034828;28;39361;-88
2020/12/09 05:49:45;;;;;;;41.30;20.03;;;3.40;61.40;;;;;;5025589;28;39360;-89
2020/12/09 05:52:14;;;;;;;35.90;18.20;;;3.40;61.90;;;;;;5034450;28;37420;-89
2020/12/09 05:54:43;;;;;;;37.13;19.93;;;3.30;61.90;;;;;;5035785;28;39670;-90
2020/12/09 05:57:12;;;;;;;37.20;19.90;;;3.40;62.00;;;;;;5027214;28;39181;-89
2020/12/09 05:59:41;;;;;;;36.20;19.50;;;3.30;61.90;;;;;;5020477;28;39588;-89
2020/12/09 06:02:13;;;;;;;39.87;20.80;;;3.40;62.00;;;;;;5028340;28;38897;-89
2020/12/09 06:04:51;;;;;;;37.97;20.67;;;3.40;61.80;;;;;;5028461;28;39104;-89
2020/12/09 06:07:19;;;;;;;37.13;19.27;;;3.40;61.90;;;;;;5035226;28;40560;-88
2020/12/09 06:10:11;;;;;;;37.33;19.30;;;3.40;62.00;;;;;;5037598;28;39575;-87
2020/12/09 06:12:56;;;;;;;36.97;20.50;;;3.40;62.00;;;;;;5042759;28;38396;-89
2020/12/09 06:15:25;;;;;;;34.70;18.13;;;3.40;62.10;;;;;;5034724;28;41045;-89
2020/12/09 06:18:09;;;;;;;38.10;20.20;;;3.40;62.00;;;;;;5019475;28;39132;-89
2020/12/09 06:21:28;;;;;;;36.13;20.07;;;3.40;62.10;;;;;;5018154;28;37160;-89
2020/12/09 06:23:55;;;;;;;36.17;18.90;;;3.40;62.00;;;;;;5025258;28;37778;-89
2020/12/09 06:26:22;;;;;;;36.40;17.37;;;3.40;62.00;;;;;;5017440;28;38559;-89
2020/12/09 06:28:50;;;;;;;41.17;20.00;;;3.30;61.80;;;;;;5018930;28;40125;-88
2020/12/09 06:31:19;;;;;;;44.50;20.73;;;3.20;62.20;;;;;;5015739;28;37746;-89
2020/12/09 06:33:48;;;;;;;37.73;19.47;;;3.20;62.10;;;;;;5040522;28;36054;-89
2020/12/09 06:36:24;;;;;;;39.57;19.10;;;3.20;62.40;;;;;;5038242;28;38796;-87
2020/12/09 06:39:12;;;;;;;39.20;19.63;;;3.20;62.80;;;;;;5014878;28;38304;-88
2020/12/09 06:41:41;;;;;;;36.70;20.13;;;3.30;63.00;;;;;;5022495;28;36837;-90
2020/12/09 06:44:13;;;;;;;43.47;19.70;;;3.30;62.80;;;;;;5016415;28;37660;-88
2020/12/09 06:46:43;;;;;;;33.87;18.73;;;3.40;62.70;;;;;;5021433;28;38687;-89
2020/12/09 06:49:36;;;;;;;40.13;19.03;;;3.30;62.70;;;;;;5010956;28;40256;-88
2020/12/09 06:52:22;;;;;;;44.37;20.23;;;3.40;62.80;;;;;;5028970;28;37944;-88
2020/12/09 06:54:49;;;;;;;34.00;17.77;;;3.40;62.80;;;;;;5016294;28;37430;-87
2020/12/09 06:57:18;;;;;;;35.93;18.70;;;3.40;62.90;;;;;;5012681;28;38212;-84
2020/12/09 06:59:46;;;;;;;39.67;18.67;;;3.40;63.00;;;;;;5009762;28;39064;-85
2020/12/09 07:02:26;;;;;;;37.90;19.90;;;3.40;63.00;;;;;;5021844;28;37303;-83
2020/12/09 07:05:07;;;;;;;41.73;21.17;;;3.50;62.80;;;;;;5013319;28;36984;-86
2020/12/09 07:07:37;;;;;;;38.10;20.23;;;3.50;62.70;;;;;;5007109;28;40187;-88
2020/12/09 07:10:11;;;;;;;38.40;19.13;;;3.50;62.90;;;;;;5019095;28;38900;-88
2020/12/09 07:12:39;;;;;;;35.20;19.23;;;3.50;62.90;;;;;;5016297;28;38340;-88
2020/12/09 07:15:07;;;;;;;38.30;18.87;;;3.50;62.90;;;;;;5005794;28;37750;-88
2020/12/09 07:17:34;;;;;;;43.53;19.87;;;3.50;62.90;;;;;;5018336;28;40131;-88
2020/12/09 07:20:01;;;;;;;39.53;20.03;;;3.50;62.90;;;;;;5027852;28;39034;-88
2020/12/09 07:22:30;;;;;;;36.30;18.90;;;3.50;63.00;;;;;;5024058;28;38556;-89
2020/12/09 07:24:57;;;;;;;35.47;18.93;;;3.40;62.50;;;;;;5035738;28;36074;-88
2020/12/09 07:27:28;;;;;;;38.13;18.43;;;3.40;62.80;;;;;;5022058;28;38841;-84
2020/12/09 07:29:59;;;;;;;37.50;19.20;;;3.40;62.80;;;;;;5029309;28;38865;-85
2020/12/09 07:32:29;;;;;;;45.53;19.60;;;3.50;63.10;;;;;;5040693;28;39606;-85
2020/12/09 07:34:58;;;;;;;40.47;20.23;;;3.50;62.90;;;;;;5035201;28;37588;-85
2020/12/09 07:37:28;;;;;;;34.60;20.10;;;3.50;62.70;;;;;;5013324;28;39337;-85
2020/12/09 07:39:57;;;;;;;35.83;18.97;;;3.60;62.80;;;;;;5013895;28;39609;-85
2020/12/09 07:42:26;;;;;;;37.77;18.97;;;3.60;62.70;;;;;;5022544;28;37675;-85
2020/12/09 07:44:56;;;;;;;38.27;19.50;;;3.50;62.70;;;;;;5010635;28;37751;-86
2020/12/09 07:47:25;;;;;;;41.00;19.87;;;3.60;62.70;;;;;;5007241;28;39575;-84
2020/12/09 07:49:57;;;;;;;41.47;20.17;;;3.60;62.80;;;;;;5006008;28;38360;-85
2020/12/09 07:52:26;;;;;;;45.97;22.20;;;3.60;62.40;;;;;;5022181;28;38504;-85
2020/12/09 07:54:55;;;;;;;44.80;19.83;;;3.70;62.40;;;;;;5004449;28;38186;-85
2020/12/09 07:57:24;;;;;;;35.37;19.03;;;3.60;62.30;;;;;;5012511;28;39305;-84
2020/12/09 07:59:55;;;;;;;44.10;20.50;;;3.60;62.60;;;;;;5002805;28;39473;-84
2020/12/09 08:02:24;;;;;;;45.70;20.73;;;3.60;62.60;;;;;;5005078;28;37556;-83
2020/12/09 08:05:11;;;;;;;44.27;20.50;;;3.60;62.60;;;;;;5012720;28;36606;-85
2020/12/09 08:07:56;;;;;;;43.33;20.90;;;3.70;62.60;;;;;;5005175;28;39573;-85
2020/12/09 08:10:27;;;;;;;36.20;19.23;;;3.70;62.60;;;;;;5009640;28;39317;-84
2020/12/09 08:13:09;;;;;;;47.10;23.43;;;3.70;62.80;;;;;;5032389;28;38821;-91
2020/12/09 08:15:44;;;;;;;47.77;19.80;;;3.70;62.60;;;;;;5027740;28;37594;-95
2020/12/09 08:18:27;;;;;;;38.07;18.80;;;3.60;62.70;;;;;;5044585;28;39784;-96
2020/12/09 08:20:56;;;;;;;40.60;20.17;;;3.60;63.00;;;;;;5076678;22;39462;-81
2020/12/09 08:23:37;;;;;;;42.87;21.47;;;3.60;63.20;;;;;;5052895;28;37315;-81
2020/12/09 08:26:04;;;;;;;44.53;20.80;;;3.60;63.40;;;;;;5030612;28;36172;-80
2020/12/09 08:28:32;;;;;;;42.83;19.57;;;3.70;63.50;;;;;;5032928;28;39869;-81
2020/12/09 08:31:00;;;;;;;42.30;20.80;;;3.70;63.10;;;;;;5034365;28;38987;-80
2020/12/09 08:34:18;;;;;;;47.43;23.57;;;3.70;62.90;;;;;;5041981;28;38198;-81
2020/12/09 08:36:46;;;;;;;50.37;23.13;;;3.70;63.00;;;;;;5030440;28;37581;-80
2020/12/09 08:39:14;;;;;;;42.40;19.80;;;3.70;63.00;;;;;;5044440;28;40566;-81
2020/12/09 08:41:41;;;;;;;45.27;21.97;;;3.70;63.10;;;;;;5050312;28;40433;-81
2020/12/09 08:44:09;;;;;;;47.43;22.60;;;3.60;63.30;;;;;;5039289;28;37493;-81
2020/12/09 08:46:36;;;;;;;55.77;22.93;;;3.60;63.60;;;;;;5028222;28;37468;-80
2020/12/09 08:49:04;;;;;;;54.67;23.57;;;3.70;63.80;;;;;;5034120;28;40865;-80
2020/12/09 08:51:36;;;;;;;54.23;24.43;;;3.70;63.70;;;;;;5031857;28;39058;-81
2020/12/09 08:54:05;;;;;;;53.47;25.20;;;3.70;63.30;;;;;;5036602;28;37959;-81
2020/12/09 08:56:35;;;;;;;49.53;25.17;;;3.70;63.50;;;;;;5029141;28;37237;-81
2020/12/09 08:59:05;;;;;;;55.83;24.50;;;3.70;63.80;;;;;;5028712;28;39387;-80
2020/12/09 09:01:36;;;;;;;50.20;24.40;;;3.80;63.50;;;;;;5035306;28;38924;-80
2020/12/09 09:04:06;;;;;;;46.63;23.30;;;3.80;63.40;;;;;;5030531;28;38408;-81
2020/12/09 09:06:34;;;;;;;46.20;22.17;;;3.80;63.30;;;;;;5036522;28;37115;-81
2020/12/09 09:09:02;;;;;;;49.47;24.00;;;3.80;63.20;;;;;;5034075;28;39246;-81
2020/12/09 09:11:31;;;;;;;51.50;23.50;;;3.80;63.70;;;;;;5028884;28;37702;-82
2020/12/09 09:13:58;;;;;;;46.50;22.93;;;3.90;64.20;;;;;;5036398;28;38178;-81
2020/12/09 09:16:26;;;;;;;54.70;24.53;;;3.90;64.10;;;;;;5049192;28;35934;-80
2020/12/09 09:18:53;;;;;;;48.40;25.10;;;4.00;63.70;;;;;;5032439;28;39470;-80
2020/12/09 09:21:21;;;;;;;49.17;24.10;;;4.00;63.40;;;;;;5028847;28;39851;-81
2020/12/09 09:23:49;;;;;;;56.37;25.67;;;4.00;63.30;;;;;;5032435;28;38461;-81
2020/12/09 09:26:19;;;;;;;42.10;23.50;;;4.00;63.30;;;;;;5034514;28;37532;-81
2020/12/09 09:28:47;;;;;;;51.90;25.50;;;4.00;63.50;;;;;;5029073;28;38962;-81
2020/12/09 09:31:16;;;;;;;45.20;21.80;;;4.00;63.70;;;;;;5028738;28;38220;-80
2020/12/09 09:33:43;;;;;;;49.10;23.90;;;4.00;63.70;;;;;;5037025;28;38779;-80
2020/12/09 09:36:10;;;;;;;50.27;23.90;;;4.00;63.90;;;;;;5036030;28;36343;-82
2020/12/09 09:38:37;;;;;;;49.23;26.23;;;3.90;63.70;;;;;;5040264;28;39820;-81
2020/12/09 09:41:04;;;;;;;45.30;23.00;;;3.90;64.00;;;;;;5036398;28;39041;-81
2020/12/09 09:43:32;;;;;;;52.07;23.43;;;4.00;64.00;;;;;;5031780;28;38038;-82
2020/12/09 09:46:00;;;;;;;45.80;23.07;;;4.00;64.20;;;;;;5034359;28;37763;-82
2020/12/09 09:48:28;;;;;;;53.37;26.20;;;4.00;64.30;;;;;;5034601;28;38938;-81
2020/12/09 09:50:55;;;;;;;49.97;24.20;;;4.00;64.00;;;;;;5035312;28;39407;-82
2020/12/09 09:53:23;;;;;;;45.50;23.40;;;4.00;63.50;;;;;;5037681;28;37864;-82
2020/12/09 09:55:51;;;;;;;45.40;23.60;;;4.00;64.10;;;;;;5041397;28;36371;-82
2020/12/09 09:58:18;;;;;;;55.40;24.73;;;4.10;64.00;;;;;;5038494;28;40112;-78
2020/12/09 10:00:46;;;;;;;46.47;21.93;;;4.10;63.80;;;;;;5026531;28;38965;-80
2020/12/09 10:03:17;;;;;;;48.23;22.23;;;4.00;63.80;;;;;;5046374;28;38222;-81
2020/12/09 10:05:45;;;;;;;48.10;23.77;;;4.00;63.90;;;;;;5039690;28;37448;-81
2020/12/09 10:08:13;;;;;;;43.73;22.80;;;4.10;64.10;;;;;;5034953;28;40447;-80
2020/12/09 10:10:40;;;;;;;48.40;24.53;;;4.10;64.10;;;;;;5036430;28;39077;-80
2020/12/09 10:13:11;;;;;;;46.00;22.77;;;4.10;64.20;;;;;;5034529;28;37413;-79
2020/12/09 10:15:39;;;;;;;44.50;23.73;;;4.10;64.40;;;;;;5037515;28;37407;-80
2020/12/09 10:18:10;;;;;;;52.30;24.83;;;4.20;64.10;;;;;;5032794;28;38596;-80
2020/12/09 10:20:38;;;;;;;45.43;22.50;;;4.20;63.90;;;;;;5031363;28;39389;-79
2020/12/09 10:23:05;;;;;;;49.63;22.67;;;4.20;63.70;;;;;;5036456;28;38353;-80
2020/12/09 10:25:32;;;;;;;43.83;23.23;;;4.20;63.60;;;;;;5035603;28;37458;-80
2020/12/09 10:28:02;;;;;;;49.07;24.60;;;4.20;63.70;;;;;;5034334;28;38289;-79
2020/12/09 10:30:30;;;;;;;45.57;23.13;;;4.30;63.90;;;;;;5032412;28;37771;-80
2020/12/09 10:33:01;;;;;;;40.50;22.63;;;4.30;63.90;;;;;;5032173;28;38125;-74
2020/12/09 10:35:28;;;;;;;36.73;21.03;;;4.30;62.90;;;;;;5033080;28;38130;-74
2020/12/09 10:37:56;;;;;;;40.47;21.77;;;4.10;62.00;;;;;;5029988;28;38611;-75
2020/12/09 10:40:23;;;;;;;49.43;25.30;;;4.00;62.50;;;;;;5027874;28;39708;-79
2020/12/09 10:42:50;;;;;;;42.77;21.30;;;3.90;63.00;;;;;;5029607;28;36755;-79
2020/12/09 10:45:17;;;;;;;39.60;22.60;;;4.00;63.50;;;;;;5040656;28;37494;-80
2020/12/09 10:47:44;;;;;;;43.23;24.53;;;4.00;63.60;;;;;;5038871;28;39772;-81
2020/12/09 10:50:12;;;;;;;43.13;23.00;;;4.10;63.80;;;;;;5034343;28;37613;-80
2020/12/09 10:52:39;;;;;;;41.97;24.33;;;4.00;63.90;;;;;;5033970;28;38262;-80
2020/12/09 10:55:07;;;;;;;41.73;23.00;;;4.10;64.30;;;;;;5033397;28;37736;-80
2020/12/09 10:57:34;;;;;;;41.33;22.97;;;4.10;64.10;;;;;;5032550;28;39577;-80
2020/12/09 11:00:02;;;;;;;39.97;22.97;;;4.10;64.30;;;;;;5034444;28;38785;-80
2020/12/09 11:02:29;;;;;;;38.93;23.30;;;4.10;64.30;;;;;;5029591;28;38499;-80
2020/12/09 11:04:56;;;;;;;42.53;21.93;;;4.10;64.20;;;;;;5030986;28;37449;-80
2020/12/09 11:07:24;;;;;;;44.47;23.37;;;4.10;64.40;;;;;;5027846;28;39574;-80
2020/12/09 11:09:53;;;;;;;36.83;22.63;;;4.10;64.30;;;;;;5032047;28;39195;-80
2020/12/09 11:12:22;;;;;;;43.93;22.07;;;4.10;64.00;;;;;;5036594;28;37005;-80
2020/12/09 11:14:52;;;;;;;39.07;22.57;;;4.10;64.20;;;;;;5029771;28;35949;-80
2020/12/09 11:17:20;;;;;;;41.33;22.00;;;4.20;64.30;;;;;;5032643;28;40329;-79
2020/12/09 11:19:47;;;;;;;46.17;23.03;;;4.20;64.40;;;;;;5043289;28;38332;-81
2020/12/09 11:22:14;;;;;;;52.30;23.00;;;4.10;64.40;;;;;;5031274;28;38091;-81
2020/12/09 11:24:41;;;;;;;39.10;21.23;;;4.30;64.30;;;;;;5028397;28;37941;-80
2020/12/09 11:27:08;;;;;;;45.43;22.90;;;4.20;64.20;;;;;;5029195;28;38270;-81
2020/12/09 11:29:39;;;;;;;43.87;23.30;;;4.20;64.20;;;;;;5023343;28;38871;-81
2020/12/09 11:32:06;;;;;;;47.80;23.23;;;4.20;64.40;;;;;;5041650;28;38345;-80
2020/12/09 11:34:34;;;;;;;41.23;22.13;;;4.20;64.50;;;;;;5031381;28;37529;-81
2020/12/09 11:37:02;;;;;;;45.57;24.40;;;4.20;64.60;;;;;;5041812;28;38481;-81
2020/12/09 11:39:29;;;;;;;37.57;21.20;;;4.20;64.60;;;;;;5029906;28;39251;-80
2020/12/09 11:41:58;;;;;;;37.07;21.57;;;4.10;64.10;;;;;;5030152;28;37789;-80
2020/12/09 11:44:26;;;;;;;44.17;22.97;;;4.10;64.30;;;;;;5021680;28;38190;-82
2020/12/09 11:46:56;;;;;;;40.27;21.80;;;4.10;64.20;;;;;;5029180;28;40417;-80
2020/12/09 11:49:23;;;;;;;39.90;22.93;;;4.10;64.50;;;;;;5031425;28;37801;-80
2020/12/09 11:51:50;;;;;;;39.37;23.33;;;4.10;64.50;;;;;;5028279;28;39008;-80
2020/12/09 11:54:20;;;;;;;42.03;23.50;;;4.10;64.50;;;;;;5035145;28;36085;-80
2020/12/09 11:56:47;;;;;;;37.03;22.33;;;4.20;64.50;;;;;;5030880;28;39645;-80
2020/12/09 11:59:14;;;;;;;39.40;22.73;;;4.20;64.60;;;;;;5031505;28;39995;-80
2020/12/09 12:02:08;;;;;;;38.87;23.47;;;4.20;64.60;;;;;;5031513;28;39071;-82
2020/12/09 12:04:42;;;;;;;40.13;21.07;;;4.30;64.60;;;;;;5044428;28;38894;-80
2020/12/09 12:10:42;;;;;;;35.50;21.33;;;4.30;64.60;;;;;;5016362;28;39602;-80
2020/12/09 12:13:49;;;;;;;39.10;21.50;;;4.30;64.30;;;;;;4998576;28;38624;-85
2020/12/09 12:17:00;;;;;;;37.10;21.37;;;4.30;64.20;;;;;;5040749;28;36446;-81
2020/12/09 12:19:28;;;;;;;38.73;22.20;;;4.30;64.40;;;;;;4992977;28;39016;-80
2020/12/09 12:21:55;;;;;;;44.10;21.83;;;4.30;64.50;;;;;;5028013;28;39286;-80
2020/12/09 12:24:24;;;;;;;34.00;21.00;;;4.40;64.60;;;;;;5052074;28;37776;-80
2020/12/09 12:26:51;;;;;;;38.53;19.83;;;4.40;64.60;;;;;;5032579;28;37985;-81
2020/12/09 12:29:18;;;;;;;36.20;21.80;;;4.30;64.40;;;;;;5041008;28;39042;-80
2020/12/09 12:31:46;;;;;;;37.57;21.57;;;4.40;64.20;;;;;;5041515;28;37996;-80
2020/12/09 12:34:13;;;;;;;34.27;20.30;;;4.30;64.10;;;;;;5041742;28;37012;-81
2020/12/09 12:36:41;;;;;;;31.70;19.33;;;4.30;64.00;;;;;;5040060;28;36303;-80
2020/12/09 12:39:09;;;;;;;32.63;19.17;;;4.30;63.70;;;;;;5040367;28;39887;-80
2020/12/09 12:41:36;;;;;;;34.77;18.80;;;4.30;63.70;;;;;;5023447;28;35991;-81
2020/12/09 12:44:04;;;;;;;34.77;21.30;;;4.30;63.40;;;;;;5030351;28;38143;-79
2020/12/09 12:46:31;;;;;;;35.50;20.60;;;4.30;63.30;;;;;;5028281;28;38103;-80
2020/12/09 12:48:58;;;;;;;34.77;20.40;;;4.30;62.80;;;;;;5032522;28;40170;-81
2020/12/09 12:51:25;;;;;;;37.10;20.40;;;4.20;62.80;;;;;;5032909;28;40100;-79
2020/12/09 12:53:54;;;;;;;35.60;20.87;;;4.20;62.90;;;;;;5023860;28;37046;-81
2020/12/09 12:56:22;;;;;;;38.80;20.50;;;4.10;62.00;;;;;;5040071;28;37356;-81
2020/12/09 12:58:50;;;;;;;34.20;21.03;;;4.10;62.00;;;;;;5029965;28;38387;-80
2020/12/09 13:01:17;;;;;;;36.10;20.57;;;4.10;62.10;;;;;;5030777;28;39385;-80
2020/12/09 13:03:47;;;;;;;44.73;20.80;;;4.10;62.00;;;;;;5026985;28;39340;-80
2020/12/09 13:06:14;;;;;;;32.10;19.37;;;4.10;62.00;;;;;;5036446;28;37336;-80
2020/12/09 13:08:41;;;;;;;33.00;18.70;;;4.10;62.00;;;;;;5035073;28;39616;-81
2020/12/09 13:11:10;;;;;;;37.83;19.63;;;4.00;61.90;;;;;;5031629;28;38965;-81
2020/12/09 13:13:37;;;;;;;36.30;20.43;;;4.00;61.90;;;;;;5042930;28;38246;-81
2020/12/09 13:16:07;;;;;;;41.90;21.80;;;3.90;61.90;;;;;;5037760;28;38117;-82
2020/12/09 13:18:34;;;;;;;39.50;21.30;;;3.90;61.90;;;;;;5035208;28;40657;-82
2020/12/09 13:21:01;;;;;;;38.43;21.73;;;3.80;61.80;;;;;;5034712;28;39198;-81